チタ の空港の天気 - METARとTAF

チタ・カダラ空港 ( UIAA / HTA ) - ロシア チタ
飛行場実況気象(Metar)
観測時間02/28 09:30 +09 (02/28 00:30 UTC)
風向・風速南南東 2m/s
視程10km以上
天気現象
なし
気温-16℃
湿度60%
気圧1020hPa
METARUIAA 280030Z 16002MPS 9999 NSC M16/M22 Q1020 R29/490160 NOSIG RMK QFE707
過去の天気等 Google飛行場航空写真 Wunderground天気予報

過去48時間のMETAR

飛行場予報(TAF)
発表時間: 2/28 08:00 +09 (2/27 23:00 UTC)
予報対象時間: 28日9時 +09 ~ 1日9時 +09
風向・風速西 3m/s
視程10km以上
全天の4割程度の積乱雲 雲底高度 1,220m
全天の8割程度の雲 雲底高度 3,050m
28日9時 +09 ~ 28日18時 +09 に一時的に
風向・風速北西 8m/s 瞬間風速 13m/s
TAF UIAA 272300Z 2800/2824 26003MPS 9999 SCT040CB BKN100
TEMPO 2800/2809 32008G13MPS